sensor_id;sensor_type;location;lat;lon;timestamp;temperature;humidity
9808;DHT22;4943;52.550;13.462;2022-12-18T00:02:15;0.80;99.90
9808;DHT22;4943;52.550;13.462;2022-12-18T00:04:42;0.80;99.90
9808;DHT22;4943;52.550;13.462;2022-12-18T00:07:09;0.70;99.90
9808;DHT22;4943;52.550;13.462;2022-12-18T00:09:36;0.70;99.90
9808;DHT22;4943;52.550;13.462;2022-12-18T00:12:06;0.70;99.90
9808;DHT22;4943;52.550;13.462;2022-12-18T00:14:42;0.70;99.90
9808;DHT22;4943;52.550;13.462;2022-12-18T00:17:09;0.60;99.90
9808;DHT22;4943;52.550;13.462;2022-12-18T00:19:36;0.50;99.90
9808;DHT22;4943;52.550;13.462;2022-12-18T00:22:03;0.60;99.90
9808;DHT22;4943;52.550;13.462;2022-12-18T00:24:30;0.60;99.90
9808;DHT22;4943;52.550;13.462;2022-12-18T00:26:56;0.60;99.90
9808;DHT22;4943;52.550;13.462;2022-12-18T00:29:23;0.60;99.90
9808;DHT22;4943;52.550;13.462;2022-12-18T00:31:51;0.60;99.90
9808;DHT22;4943;52.550;13.462;2022-12-18T00:34:18;0.60;99.90
9808;DHT22;4943;52.550;13.462;2022-12-18T00:36:47;0.60;99.90
9808;DHT22;4943;52.550;13.462;2022-12-18T00:39:14;0.60;99.90
9808;DHT22;4943;52.550;13.462;2022-12-18T00:41:41;0.50;99.90
9808;DHT22;4943;52.550;13.462;2022-12-18T00:44:41;0.40;99.90
9808;DHT22;4943;52.550;13.462;2022-12-18T00:47:08;0.30;99.90
9808;DHT22;4943;52.550;13.462;2022-12-18T00:49:35;0.30;99.90
9808;DHT22;4943;52.550;13.462;2022-12-18T00:52:02;0.20;99.90
9808;DHT22;4943;52.550;13.462;2022-12-18T00:54:29;0.20;99.90
9808;DHT22;4943;52.550;13.462;2022-12-18T00:56:56;0.20;99.90
9808;DHT22;4943;52.550;13.462;2022-12-18T00:59:22;0.20;99.90
9808;DHT22;4943;52.550;13.462;2022-12-18T01:01:49;0.10;99.90
9808;DHT22;4943;52.550;13.462;2022-12-18T01:04:17;0.00;99.90
9808;DHT22;4943;52.550;13.462;2022-12-18T01:06:44;0.00;99.90
9808;DHT22;4943;52.550;13.462;2022-12-18T01:09:11;0.00;99.90
9808;DHT22;4943;52.550;13.462;2022-12-18T01:11:38;0.10;99.90
9808;DHT22;4943;52.550;13.462;2022-12-18T01:14:05;0.10;99.90
9808;DHT22;4943;52.550;13.462;2022-12-18T01:16:32;0.10;99.90
9808;DHT22;4943;52.550;13.462;2022-12-18T01:18:59;0.20;99.90
9808;DHT22;4943;52.550;13.462;2022-12-18T01:21:27;0.20;99.90
9808;DHT22;4943;52.550;13.462;2022-12-18T01:23:54;0.20;99.90
9808;DHT22;4943;52.550;13.462;2022-12-18T01:26:22;0.30;99.90
9808;DHT22;4943;52.550;13.462;2022-12-18T01:28:49;0.30;99.90
9808;DHT22;4943;52.550;13.462;2022-12-18T01:31:19;0.30;99.90
9808;DHT22;4943;52.550;13.462;2022-12-18T01:33:46;0.30;99.90
9808;DHT22;4943;52.550;13.462;2022-12-18T01:36:19;0.20;99.90
9808;DHT22;4943;52.550;13.462;2022-12-18T01:38:47;0.20;99.90
9808;DHT22;4943;52.550;13.462;2022-12-18T01:41:15;0.20;99.90
9808;DHT22;4943;52.550;13.462;2022-12-18T01:43:44;0.20;99.90
9808;DHT22;4943;52.550;13.462;2022-12-18T01:46:11;0.10;99.90
9808;DHT22;4943;52.550;13.462;2022-12-18T01:48:39;0.10;99.90
9808;DHT22;4943;52.550;13.462;2022-12-18T01:51:08;0.10;99.90
9808;DHT22;4943;52.550;13.462;2022-12-18T01:53:36;0.10;99.90
9808;DHT22;4943;52.550;13.462;2022-12-18T01:56:05;0.20;99.90
9808;DHT22;4943;52.550;13.462;2022-12-18T01:58:41;0.20;99.90
9808;DHT22;4943;52.550;13.462;2022-12-18T02:01:10;0.10;99.90
9808;DHT22;4943;52.550;13.462;2022-12-18T02:03:37;0.10;99.90
9808;DHT22;4943;52.550;13.462;2022-12-18T02:06:10;0.10;99.90
9808;DHT22;4943;52.550;13.462;2022-12-18T02:08:45;0.10;99.90
9808;DHT22;4943;52.550;13.462;2022-12-18T02:11:20;0.10;99.90
9808;DHT22;4943;52.550;13.462;2022-12-18T02:13:56;0.10;99.90
9808;DHT22;4943;52.550;13.462;2022-12-18T02:16:29;0.10;99.90
9808;DHT22;4943;52.550;13.462;2022-12-18T02:18:59;0.10;99.90
9808;DHT22;4943;52.550;13.462;2022-12-18T02:21:33;0.10;99.90
9808;DHT22;4943;52.550;13.462;2022-12-18T02:24:16;0.10;99.90
9808;DHT22;4943;52.550;13.462;2022-12-18T02:26:47;0.10;99.90
9808;DHT22;4943;52.550;13.462;2022-12-18T02:29:18;0.00;99.90
9808;DHT22;4943;52.550;13.462;2022-12-18T02:31:51;-0.10;99.90
9808;DHT22;4943;52.550;13.462;2022-12-18T02:34:21;-0.10;99.90
9808;DHT22;4943;52.550;13.462;2022-12-18T02:36:50;-0.10;99.90
9808;DHT22;4943;52.550;13.462;2022-12-18T02:39:19;-0.10;99.90
9808;DHT22;4943;52.550;13.462;2022-12-18T02:41:48;-0.10;99.90
9808;DHT22;4943;52.550;13.462;2022-12-18T02:44:15;-0.10;99.90
9808;DHT22;4943;52.550;13.462;2022-12-18T02:46:43;-0.20;99.90
9808;DHT22;4943;52.550;13.462;2022-12-18T02:49:21;-0.20;99.90
9808;DHT22;4943;52.550;13.462;2022-12-18T02:51:53;-0.20;99.90
9808;DHT22;4943;52.550;13.462;2022-12-18T02:54:31;-0.10;99.90
9808;DHT22;4943;52.550;13.462;2022-12-18T02:57:08;-0.10;99.90
9808;DHT22;4943;52.550;13.462;2022-12-18T02:59:42;-0.20;99.90
9808;DHT22;4943;52.550;13.462;2022-12-18T03:02:19;-0.30;99.90
9808;DHT22;4943;52.550;13.462;2022-12-18T03:04:53;-0.30;99.90
9808;DHT22;4943;52.550;13.462;2022-12-18T03:07:33;-0.30;99.90
9808;DHT22;4943;52.550;13.462;2022-12-18T03:10:01;-0.40;99.90
9808;DHT22;4943;52.550;13.462;2022-12-18T03:12:31;-0.40;99.90
9808;DHT22;4943;52.550;13.462;2022-12-18T03:15:03;-0.40;99.90
9808;DHT22;4943;52.550;13.462;2022-12-18T03:17:32;-0.40;99.90
9808;DHT22;4943;52.550;13.462;2022-12-18T03:20:05;-0.40;99.90
9808;DHT22;4943;52.550;13.462;2022-12-18T03:22:34;-0.30;99.90
9808;DHT22;4943;52.550;13.462;2022-12-18T03:25:05;-0.40;99.90
9808;DHT22;4943;52.550;13.462;2022-12-18T03:27:36;-0.40;99.90
9808;DHT22;4943;52.550;13.462;2022-12-18T03:30:07;-0.40;99.90
9808;DHT22;4943;52.550;13.462;2022-12-18T03:32:39;-0.40;99.90
9808;DHT22;4943;52.550;13.462;2022-12-18T03:35:08;-0.30;99.90
9808;DHT22;4943;52.550;13.462;2022-12-18T03:37:36;-0.30;99.90
9808;DHT22;4943;52.550;13.462;2022-12-18T03:40:04;-0.30;99.90
9808;DHT22;4943;52.550;13.462;2022-12-18T03:42:37;-0.40;99.90
9808;DHT22;4943;52.550;13.462;2022-12-18T03:45:11;-0.50;99.90
9808;DHT22;4943;52.550;13.462;2022-12-18T03:47:44;-0.50;99.90
9808;DHT22;4943;52.550;13.462;2022-12-18T03:50:16;-0.50;99.90
9808;DHT22;4943;52.550;13.462;2022-12-18T03:52:49;-0.50;99.90
9808;DHT22;4943;52.550;13.462;2022-12-18T03:55:19;-0.40;99.90
9808;DHT22;4943;52.550;13.462;2022-12-18T03:57:48;-0.40;99.90
9808;DHT22;4943;52.550;13.462;2022-12-18T04:00:18;-0.40;99.90
9808;DHT22;4943;52.550;13.462;2022-12-18T04:02:48;-0.30;99.90
9808;DHT22;4943;52.550;13.462;2022-12-18T04:05:18;-0.30;99.90
9808;DHT22;4943;52.550;13.462;2022-12-18T04:07:47;-0.30;99.90
9808;DHT22;4943;52.550;13.462;2022-12-18T04:10:16;-0.40;99.90
9808;DHT22;4943;52.550;13.462;2022-12-18T04:12:43;-0.50;99.90
9808;DHT22;4943;52.550;13.462;2022-12-18T04:15:12;-0.60;99.90
9808;DHT22;4943;52.550;13.462;2022-12-18T04:17:43;-0.60;99.90
9808;DHT22;4943;52.550;13.462;2022-12-18T04:20:13;-0.70;99.90
9808;DHT22;4943;52.550;13.462;2022-12-18T04:22:40;-0.70;99.90
9808;DHT22;4943;52.550;13.462;2022-12-18T04:25:07;-0.80;99.90
9808;DHT22;4943;52.550;13.462;2022-12-18T04:27:35;-0.80;99.90
9808;DHT22;4943;52.550;13.462;2022-12-18T04:30:02;-0.70;99.90
9808;DHT22;4943;52.550;13.462;2022-12-18T04:32:29;-0.70;99.90
9808;DHT22;4943;52.550;13.462;2022-12-18T04:34:56;-0.70;99.90
9808;DHT22;4943;52.550;13.462;2022-12-18T04:37:23;-0.70;99.90
9808;DHT22;4943;52.550;13.462;2022-12-18T04:39:50;-0.80;99.90
9808;DHT22;4943;52.550;13.462;2022-12-18T04:42:17;-0.80;99.90
9808;DHT22;4943;52.550;13.462;2022-12-18T04:44:44;-0.80;99.90
9808;DHT22;4943;52.550;13.462;2022-12-18T04:47:11;-0.80;99.90
9808;DHT22;4943;52.550;13.462;2022-12-18T04:49:38;-0.80;99.90
9808;DHT22;4943;52.550;13.462;2022-12-18T04:52:05;-0.80;99.90
9808;DHT22;4943;52.550;13.462;2022-12-18T04:54:32;-0.80;99.90
9808;DHT22;4943;52.550;13.462;2022-12-18T04:56:59;-0.90;99.90
9808;DHT22;4943;52.550;13.462;2022-12-18T04:59:26;-0.90;99.90
9808;DHT22;4943;52.550;13.462;2022-12-18T05:01:53;-0.90;99.90
9808;DHT22;4943;52.550;13.462;2022-12-18T05:04:20;-0.90;99.90
9808;DHT22;4943;52.550;13.462;2022-12-18T05:06:48;-0.90;99.90
9808;DHT22;4943;52.550;13.462;2022-12-18T05:09:15;-0.90;99.90
9808;DHT22;4943;52.550;13.462;2022-12-18T05:11:42;-0.90;99.90
9808;DHT22;4943;52.550;13.462;2022-12-18T05:14:09;-0.90;99.90
9808;DHT22;4943;52.550;13.462;2022-12-18T05:16:36;-0.90;99.90
9808;DHT22;4943;52.550;13.462;2022-12-18T05:19:04;-1.00;99.90
9808;DHT22;4943;52.550;13.462;2022-12-18T05:21:30;-1.00;99.90
9808;DHT22;4943;52.550;13.462;2022-12-18T05:23:58;-1.00;99.90
9808;DHT22;4943;52.550;13.462;2022-12-18T05:26:25;-1.00;99.90
9808;DHT22;4943;52.550;13.462;2022-12-18T05:28:52;-1.00;99.90
9808;DHT22;4943;52.550;13.462;2022-12-18T05:31:19;-1.00;99.90
9808;DHT22;4943;52.550;13.462;2022-12-18T05:33:46;-1.00;99.90
9808;DHT22;4943;52.550;13.462;2022-12-18T05:36:13;-0.90;99.90
9808;DHT22;4943;52.550;13.462;2022-12-18T05:38:40;-0.90;99.90
9808;DHT22;4943;52.550;13.462;2022-12-18T05:41:08;-0.90;99.90
9808;DHT22;4943;52.550;13.462;2022-12-18T05:43:36;-0.90;99.90
9808;DHT22;4943;52.550;13.462;2022-12-18T05:46:04;-0.90;99.90
9808;DHT22;4943;52.550;13.462;2022-12-18T05:48:32;-0.90;99.90
9808;DHT22;4943;52.550;13.462;2022-12-18T05:51:04;-0.90;99.90
9808;DHT22;4943;52.550;13.462;2022-12-18T05:53:32;-0.80;99.90
9808;DHT22;4943;52.550;13.462;2022-12-18T05:56:00;-0.80;99.90
9808;DHT22;4943;52.550;13.462;2022-12-18T05:58:28;-0.80;99.90
9808;DHT22;4943;52.550;13.462;2022-12-18T06:00:56;-0.90;99.90
9808;DHT22;4943;52.550;13.462;2022-12-18T06:03:23;-0.90;99.90
9808;DHT22;4943;52.550;13.462;2022-12-18T06:05:56;-0.90;99.90
9808;DHT22;4943;52.550;13.462;2022-12-18T06:08:23;-0.90;99.90
9808;DHT22;4943;52.550;13.462;2022-12-18T06:10:51;-1.00;99.90
9808;DHT22;4943;52.550;13.462;2022-12-18T06:13:19;-1.00;99.90
9808;DHT22;4943;52.550;13.462;2022-12-18T06:15:47;-0.90;99.90
9808;DHT22;4943;52.550;13.462;2022-12-18T06:18:14;-0.90;99.90
9808;DHT22;4943;52.550;13.462;2022-12-18T06:20:41;-0.80;99.90
9808;DHT22;4943;52.550;13.462;2022-12-18T06:23:08;-0.80;99.90
9808;DHT22;4943;52.550;13.462;2022-12-18T06:25:37;-0.90;99.90
9808;DHT22;4943;52.550;13.462;2022-12-18T06:28:22;-0.90;99.90
9808;DHT22;4943;52.550;13.462;2022-12-18T06:38:58;-1.00;99.90
